createdAt,value
2017-09-03T00:01:31.938Z,100482.17
2017-09-03T00:04:33.253Z,100478.14
2017-09-03T00:07:34.588Z,100467.81
2017-09-03T00:10:35.893Z,100459.45
2017-09-03T00:13:37.258Z,100462.51
2017-09-03T00:16:38.614Z,100461.97
2017-09-03T00:19:39.996Z,100457.43
2017-09-03T00:22:41.364Z,100459.08
2017-09-03T00:25:42.778Z,100455.56
2017-09-03T00:28:44.121Z,100455.78
2017-09-03T00:31:45.943Z,100453.48
2017-09-03T00:34:47.338Z,100463.86
2017-09-03T00:37:48.772Z,100456.69
2017-09-03T00:40:50.102Z,100460.77
2017-09-03T00:43:51.492Z,100459.01
2017-09-03T00:46:52.791Z,100456.51
2017-09-03T00:49:54.198Z,100458.49
2017-09-03T00:52:55.556Z,100450.91
2017-09-03T00:55:56.892Z,100449.37
2017-09-03T00:58:58.257Z,100453.05
2017-09-03T01:01:59.560Z,100441.09
2017-09-03T01:05:00.905Z,100439.95
2017-09-03T01:08:02.254Z,100443.63
2017-09-03T01:11:03.618Z,100439.05
2017-09-03T01:14:05.125Z,100438.41
2017-09-03T01:17:06.460Z,100432.48
2017-09-03T01:20:07.798Z,100436.74
2017-09-03T01:23:09.429Z,100434.88
2017-09-03T01:26:10.758Z,100432.30
2017-09-03T01:29:12.106Z,100427.34
2017-09-03T01:32:13.457Z,100420.98
2017-09-03T01:35:14.807Z,100423.19
2017-09-03T01:38:16.097Z,100417.95
2017-09-03T01:41:17.434Z,100419.23
2017-09-03T01:44:18.737Z,100411.28
2017-09-03T01:47:20.120Z,100416.19
2017-09-03T01:50:21.440Z,100420.71
2017-09-03T01:53:22.744Z,100422.70
2017-09-03T01:56:24.070Z,100425.36
2017-09-03T01:59:25.377Z,100425.25
2017-09-03T02:02:26.689Z,100423.10
2017-09-03T02:05:28.013Z,100420.41
2017-09-03T02:08:29.304Z,100429.15
2017-09-03T02:11:30.636Z,100423.19
2017-09-03T02:14:31.933Z,100424.14
2017-09-03T02:17:33.281Z,100424.18
2017-09-03T02:20:34.625Z,100412.06
2017-09-03T02:23:35.942Z,100414.06
2017-09-03T02:26:37.252Z,100414.45
2017-09-03T02:29:38.590Z,100413.20
2017-09-03T02:32:40.292Z,100417.70
2017-09-03T02:35:41.590Z,100413.08
2017-09-03T02:38:42.917Z,100414.52
2017-09-03T02:41:44.213Z,100415.05
2017-09-03T02:44:45.530Z,100407.22
2017-09-03T02:47:46.801Z,100408.03
2017-09-03T02:50:48.181Z,100407.58
2017-09-03T02:53:49.532Z,100414.30
2017-09-03T02:56:50.886Z,100417.81
2017-09-03T02:59:52.648Z,100416.98
2017-09-03T03:02:53.968Z,100416.05
2017-09-03T03:05:55.309Z,100414.31
2017-09-03T03:08:56.628Z,100413.60
2017-09-03T03:11:57.989Z,100409.98
2017-09-03T03:14:59.300Z,100410.07
2017-09-03T03:18:00.753Z,100407.50
2017-09-03T03:21:02.041Z,100402.52
2017-09-03T03:24:03.421Z,100404.98
2017-09-03T03:27:04.749Z,100405.41
2017-09-03T03:30:06.042Z,100404.08
2017-09-03T03:33:07.377Z,100396.14
2017-09-03T03:36:08.689Z,100396.00
2017-09-03T03:39:10.047Z,100390.98
2017-09-03T03:42:11.373Z,100393.80
2017-09-03T03:45:12.661Z,100397.69
2017-09-03T03:48:14.028Z,100391.88
2017-09-03T03:51:15.332Z,100394.05
2017-09-03T03:54:16.842Z,100393.36
2017-09-03T03:57:18.168Z,100390.64
2017-09-03T04:00:19.492Z,100385.28
2017-09-03T04:03:20.856Z,100379.63
2017-09-03T04:06:22.182Z,100390.38
2017-09-03T04:09:23.537Z,100381.23
2017-09-03T04:12:24.861Z,100383.11
2017-09-03T04:15:26.172Z,100376.52
2017-09-03T04:18:27.536Z,100377.98
2017-09-03T04:21:28.836Z,100369.07
2017-09-03T04:24:30.185Z,100370.25
2017-09-03T04:27:31.636Z,100360.83
2017-09-03T04:30:32.977Z,100359.63
2017-09-03T04:33:34.310Z,100368.36
2017-09-03T04:36:35.610Z,100361.42
2017-09-03T04:39:36.925Z,100365.20
2017-09-03T04:42:38.205Z,100351.24
2017-09-03T04:45:39.557Z,100355.77
2017-09-03T04:48:40.890Z,100349.09
2017-09-03T04:51:42.189Z,100349.66
2017-09-03T04:54:43.537Z,100343.25
2017-09-03T04:57:44.849Z,100353.73
2017-09-03T05:00:46.181Z,100356.07
2017-09-03T05:03:47.496Z,100355.81
2017-09-03T05:06:48.824Z,100357.52
2017-09-03T05:09:50.149Z,100346.05
2017-09-03T05:12:51.449Z,100349.90
2017-09-03T05:15:52.769Z,100335.95
2017-09-03T05:18:54.116Z,100345.18
2017-09-03T05:21:55.669Z,100350.34
2017-09-03T05:24:57.020Z,100353.23
2017-09-03T05:27:58.321Z,100348.34
2017-09-03T05:30:59.675Z,100354.05
2017-09-03T05:34:00.989Z,100352.96
2017-09-03T05:37:02.363Z,100347.48
2017-09-03T05:40:03.797Z,100360.74
2017-09-03T05:43:05.109Z,100353.09
2017-09-03T05:46:06.442Z,100354.12
2017-09-03T05:49:07.742Z,100352.07
2017-09-03T05:52:09.065Z,100345.53
2017-09-03T05:55:10.350Z,100349.83
2017-09-03T05:58:11.685Z,100351.08
2017-09-03T06:01:13.072Z,100355.59
2017-09-03T06:04:14.355Z,100349.13
2017-09-03T06:07:15.713Z,100343.05
2017-09-03T06:10:17.032Z,100341.13
2017-09-03T06:13:18.380Z,100343.91
2017-09-03T06:16:19.692Z,100342.76
2017-09-03T06:19:21.079Z,100347.02
2017-09-03T06:22:22.424Z,100349.33
2017-09-03T06:25:23.768Z,100342.14
2017-09-03T06:28:25.212Z,100347.84
2017-09-03T06:31:26.506Z,100345.02
2017-09-03T06:34:27.829Z,100348.18
2017-09-03T06:37:29.165Z,100348.07
2017-09-03T06:40:30.524Z,100354.74
2017-09-03T06:43:31.816Z,100353.23
2017-09-03T06:46:33.149Z,100350.20
2017-09-03T06:49:34.485Z,100357.08
2017-09-03T06:52:35.780Z,100354.28
2017-09-03T06:55:37.137Z,100353.50
2017-09-03T06:58:38.462Z,100349.80
2017-09-03T07:01:39.817Z,100359.67
2017-09-03T07:04:41.158Z,100364.41
2017-09-03T07:07:42.480Z,100360.14
2017-09-03T07:10:43.777Z,100361.63
2017-09-03T07:13:45.105Z,100356.67
2017-09-03T07:16:46.441Z,100360.38
2017-09-03T07:19:48.564Z,100360.31
2017-09-03T07:22:49.934Z,100362.02
2017-09-03T07:25:51.281Z,100356.73
2017-09-03T07:28:52.567Z,100362.45
2017-09-03T07:31:53.874Z,100354.19
2017-09-03T07:34:55.193Z,100355.13
2017-09-03T07:37:56.489Z,100363.05
2017-09-03T07:40:57.848Z,100353.75
2017-09-03T07:43:59.209Z,100358.14
2017-09-03T07:47:00.552Z,100361.83
2017-09-03T07:50:01.914Z,100356.64
2017-09-03T07:53:03.253Z,100346.73
2017-09-03T07:56:04.600Z,100351.71
2017-09-03T07:59:05.876Z,100344.75
2017-09-03T08:02:07.209Z,100351.66
2017-09-03T08:05:08.810Z,100350.49
2017-09-03T08:08:10.133Z,100353.19
2017-09-03T08:11:11.454Z,100353.08
2017-09-03T08:14:12.763Z,100346.39
2017-09-03T08:17:14.077Z,100340.75
2017-09-03T08:20:15.403Z,100345.72
2017-09-03T08:23:16.734Z,100340.39
2017-09-03T08:26:18.085Z,100339.45
2017-09-03T08:29:19.424Z,100340.35
2017-09-03T08:32:20.750Z,100339.73
2017-09-03T08:35:22.062Z,100337.99
2017-09-03T08:38:23.420Z,100334.39
2017-09-03T08:41:24.697Z,100329.41
2017-09-03T08:44:26.034Z,100335.68
2017-09-03T08:47:27.363Z,100335.13
2017-09-03T08:50:28.657Z,100334.98
2017-09-03T08:53:30.005Z,100323.82
2017-09-03T08:56:31.329Z,100316.75
2017-09-03T08:59:32.676Z,100327.95
2017-09-03T09:02:34.015Z,100316.90
2017-09-03T09:05:35.324Z,100315.60
2017-09-03T09:08:36.645Z,100313.30
2017-09-03T09:11:37.957Z,100302.70
2017-09-03T09:14:39.286Z,100303.72
2017-09-03T09:17:40.625Z,100307.22
2017-09-03T09:20:41.990Z,100302.50
2017-09-03T09:23:43.364Z,100304.91
2017-09-03T09:26:44.665Z,100296.63
2017-09-03T09:29:46.049Z,100291.13
2017-09-03T09:32:47.401Z,100294.81
2017-09-03T09:35:48.724Z,100285.99
2017-09-03T09:38:50.079Z,100293.59
2017-09-03T09:41:51.373Z,100286.78
2017-09-03T09:44:52.710Z,100293.91
2017-09-03T09:47:54.063Z,100295.19
2017-09-03T09:50:55.436Z,100292.76
2017-09-03T09:53:56.797Z,100298.51
2017-09-03T09:56:58.132Z,100285.50
2017-09-03T09:59:59.479Z,100295.88
2017-09-03T10:03:00.773Z,100300.30
2017-09-03T10:06:02.110Z,100289.84
2017-09-03T10:09:03.464Z,100285.84
2017-09-03T10:12:04.785Z,100285.74
2017-09-03T10:15:06.112Z,100277.23
2017-09-03T10:18:07.434Z,100277.73
2017-09-03T10:21:08.802Z,100275.33
2017-09-03T10:24:10.144Z,100283.26
2017-09-03T10:27:11.490Z,100278.39
2017-09-03T10:30:12.817Z,100276.73
2017-09-03T10:33:14.181Z,100270.08
2017-09-03T10:36:15.497Z,100263.46
2017-09-03T10:39:16.821Z,100268.09
2017-09-03T10:42:18.145Z,100267.26
2017-09-03T10:45:19.461Z,100264.79
2017-09-03T10:48:20.785Z,100254.83
2017-09-03T10:51:22.137Z,100259.46
2017-09-03T10:54:23.497Z,100259.33
2017-09-03T10:57:25.129Z,100249.57
2017-09-03T11:00:26.444Z,100257.04
2017-09-03T11:03:28.518Z,100249.25
2017-09-03T11:06:29.834Z,100252.32
2017-09-03T11:09:31.177Z,100249.20
2017-09-03T11:12:32.462Z,100241.03
2017-09-03T11:15:33.820Z,100226.69
2017-09-03T11:18:35.424Z,100236.73
2017-09-03T11:21:36.746Z,100223.01
2017-09-03T11:24:38.177Z,100228.08
2017-09-03T11:27:40.257Z,100222.70
2017-09-03T11:30:41.591Z,100214.28
2017-09-03T11:33:42.949Z,100221.02
2017-09-03T11:36:44.311Z,100217.61
2017-09-03T11:39:45.635Z,100214.59
2017-09-03T11:42:47.002Z,100218.58
2017-09-03T11:45:48.613Z,100216.13
2017-09-03T11:48:49.984Z,100203.61
2017-09-03T11:51:51.362Z,100210.92
2017-09-03T11:54:52.736Z,100202.13
2017-09-03T11:57:54.120Z,100195.69
2017-09-03T12:00:55.457Z,100201.13
2017-09-03T12:03:56.830Z,100199.30
2017-09-03T12:06:58.165Z,100198.42
2017-09-03T12:09:59.503Z,100193.63
2017-09-03T12:13:00.869Z,100187.47
2017-09-03T12:16:02.229Z,100186.53
2017-09-03T12:19:03.650Z,100180.25
2017-09-03T12:22:04.962Z,100177.67
2017-09-03T12:25:06.306Z,100179.20
2017-09-03T12:28:08.017Z,100177.56
2017-09-03T12:31:09.375Z,100166.60
2017-09-03T12:34:10.772Z,100164.75
2017-09-03T12:37:12.125Z,100173.69
2017-09-03T12:40:13.509Z,100162.91
2017-09-03T12:43:14.855Z,100157.23
2017-09-03T12:46:16.204Z,100150.30
2017-09-03T12:49:17.649Z,100147.08
2017-09-03T12:52:18.984Z,100144.11
2017-09-03T12:55:20.724Z,100143.70
2017-09-03T12:58:22.010Z,100136.77
2017-09-03T13:01:23.458Z,100137.53
2017-09-03T13:04:24.773Z,100130.92
2017-09-03T13:07:26.118Z,100132.70
2017-09-03T13:10:27.436Z,100119.84
2017-09-03T13:13:28.749Z,100120.97
2017-09-03T13:16:30.052Z,100118.80
2017-09-03T13:19:31.444Z,100111.45
2017-09-03T13:22:32.797Z,100117.53
2017-09-03T13:25:34.141Z,100122.92
2017-09-03T13:28:35.588Z,100107.34
2017-09-03T13:31:36.925Z,100106.50
2017-09-03T13:34:38.247Z,100100.17
2017-09-03T13:37:39.578Z,100108.20
2017-09-03T13:40:40.934Z,100105.23
2017-09-03T13:43:42.277Z,100092.52
2017-09-03T13:46:43.614Z,100094.70
2017-09-03T13:49:45.069Z,100100.07
2017-09-03T13:52:46.373Z,100099.77
2017-09-03T13:55:47.693Z,100093.05
2017-09-03T13:58:48.977Z,100098.67
2017-09-03T14:01:50.309Z,100092.24
2017-09-03T14:04:51.645Z,100091.99
2017-09-03T14:07:52.953Z,100093.70
2017-09-03T14:10:54.385Z,100092.52
2017-09-03T14:13:55.696Z,100086.97
2017-09-03T14:16:57.035Z,100084.21
2017-09-03T14:19:58.381Z,100083.92
2017-09-03T14:22:59.735Z,100076.49
2017-09-03T14:26:01.041Z,100084.00
2017-09-03T14:29:02.357Z,100079.20
2017-09-03T14:32:03.654Z,100072.47
2017-09-03T14:35:04.996Z,100078.48
2017-09-03T14:38:06.305Z,100065.52
2017-09-03T14:41:07.622Z,100068.53
2017-09-03T14:44:08.924Z,100068.16
2017-09-03T14:47:10.268Z,100066.68
2017-09-03T14:50:11.740Z,100064.98
2017-09-03T14:53:13.049Z,100059.92
2017-09-03T14:56:14.520Z,100050.25
2017-09-03T14:59:15.828Z,100059.91
2017-09-03T15:02:17.129Z,100058.88
2017-09-03T15:05:18.421Z,100053.66
2017-09-03T15:08:19.763Z,100047.31
2017-09-03T15:11:21.060Z,100042.38
2017-09-03T15:14:22.483Z,100044.16
2017-09-03T15:17:23.893Z,100043.98
2017-09-03T15:20:25.237Z,100042.14
2017-09-03T15:23:26.640Z,100048.98
2017-09-03T15:26:28.051Z,100051.69
2017-09-03T15:29:29.597Z,100040.66
2017-09-03T15:32:31.178Z,100041.64
2017-09-03T15:35:32.611Z,100032.10
2017-09-03T15:38:33.994Z,100030.52
2017-09-03T15:41:35.309Z,100036.94
2017-09-03T15:44:36.684Z,100026.84
2017-09-03T15:47:38.029Z,100032.27
2017-09-03T15:50:39.393Z,100035.12
2017-09-03T15:53:40.768Z,100031.31
2017-09-03T15:56:42.117Z,100031.95
2017-09-03T15:59:43.497Z,100027.90
2017-09-03T16:02:44.881Z,100019.89
2017-09-03T16:05:46.248Z,100015.06
2017-09-03T16:08:47.605Z,100017.09
2017-09-03T16:11:48.921Z,100021.13
2017-09-03T16:14:50.217Z,100018.38
2017-09-03T16:17:51.557Z,100020.91
2017-09-03T16:20:52.937Z,100009.55
2017-09-03T16:23:54.264Z,100017.13
2017-09-03T16:26:55.589Z,100019.41
2017-09-03T16:29:56.912Z,100012.81
2017-09-03T16:32:58.239Z,100012.31
2017-09-03T16:35:59.594Z,100014.80
2017-09-03T16:39:00.886Z,100010.92
2017-09-03T16:42:02.224Z,100016.00
2017-09-03T16:45:03.505Z,100015.50
2017-09-03T16:48:04.847Z,100020.34
2017-09-03T16:51:06.192Z,100023.73
2017-09-03T16:54:07.556Z,100012.48
2017-09-03T16:57:08.951Z,100014.49
2017-09-03T17:00:10.305Z,100013.53
2017-09-03T17:03:11.653Z,100003.30
2017-09-03T17:06:12.986Z,99997.50
2017-09-03T17:09:14.360Z,100005.72
2017-09-03T17:12:15.748Z,100011.64
2017-09-03T17:15:17.117Z,100011.08
2017-09-03T17:18:18.493Z,100018.51
2017-09-03T17:21:19.833Z,100011.43
2017-09-03T17:24:21.198Z,100015.94
2017-09-03T17:27:22.568Z,100019.92
2017-09-03T17:30:23.956Z,100019.78
2017-09-03T17:33:25.343Z,100022.48
2017-09-03T17:36:30.541Z,100032.39
2017-09-03T17:39:32.881Z,100029.24
2017-09-03T17:42:34.213Z,100029.77
2017-09-03T17:45:35.538Z,100031.55
2017-09-03T17:48:36.926Z,100031.70
2017-09-03T17:51:38.269Z,100031.79
2017-09-03T17:54:39.666Z,100030.28
2017-09-03T17:57:41.150Z,100030.32
2017-09-03T18:00:42.533Z,100030.23
2017-09-03T18:03:44.079Z,100029.04
2017-09-03T18:06:45.432Z,100026.10
2017-09-03T18:09:46.817Z,100036.46
2017-09-03T18:12:48.153Z,100029.38
2017-09-03T18:15:49.521Z,100033.98
2017-09-03T18:18:50.885Z,100026.95
2017-09-03T18:21:52.393Z,100037.33
2017-09-03T18:24:53.759Z,100031.16
2017-09-03T18:27:55.131Z,100036.88
2017-09-03T18:30:57.446Z,100029.26
2017-09-03T18:33:58.805Z,100035.34
2017-09-03T18:37:16.111Z,100030.99
2017-09-03T18:40:17.498Z,100033.82
2017-09-03T18:43:20.834Z,100035.67
2017-09-03T18:46:26.289Z,100038.05
2017-09-03T18:49:30.716Z,100042.29
2017-09-03T18:52:32.990Z,100041.82
2017-09-03T18:55:36.271Z,100044.53
2017-09-03T18:58:52.853Z,100049.95
2017-09-03T19:01:54.205Z,100043.41
2017-09-03T19:04:58.380Z,100049.45
2017-09-03T19:07:59.766Z,100039.86
2017-09-03T19:11:01.154Z,100050.79
2017-09-03T19:14:02.558Z,100053.39
2017-09-03T19:17:03.957Z,100049.26
2017-09-03T19:20:05.433Z,100053.88
2017-09-03T19:23:06.829Z,100056.50
2017-09-03T19:26:08.615Z,100068.12
2017-09-03T19:29:09.993Z,100059.14
2017-09-03T19:32:11.386Z,100063.31
2017-09-03T19:35:12.733Z,100063.43
2017-09-03T19:38:14.146Z,100061.64
2017-09-03T19:41:23.809Z,100066.64
2017-09-03T19:44:25.131Z,100062.65
2017-09-03T19:47:26.440Z,100061.83
2017-09-03T19:50:27.800Z,100070.16
2017-09-03T19:53:29.092Z,100064.65
2017-09-03T19:56:30.456Z,100071.01
2017-09-03T19:59:31.944Z,100069.03
2017-09-03T20:02:33.284Z,100066.99
2017-09-03T20:05:34.944Z,100065.70
2017-09-03T20:08:36.265Z,100062.00
2017-09-03T20:11:37.669Z,100061.54
2017-09-03T20:14:38.988Z,100065.06
2017-09-03T20:17:40.305Z,100066.61
2017-09-03T20:20:41.622Z,100067.31
2017-09-03T20:23:42.934Z,100058.28
2017-09-03T20:26:44.283Z,100058.89
2017-09-03T20:29:45.604Z,100056.28
2017-09-03T20:32:47.294Z,100064.59
2017-09-03T20:35:48.715Z,100056.70
2017-09-03T20:38:50.094Z,100066.92
2017-09-03T20:41:51.428Z,100069.61
2017-09-03T20:44:52.767Z,100066.13
2017-09-03T20:47:54.079Z,100058.34
2017-09-03T20:50:55.409Z,100059.84
2017-09-03T20:53:56.804Z,100063.80
2017-09-03T20:56:58.153Z,100069.55
2017-09-03T20:59:59.490Z,100070.21
2017-09-03T21:03:00.845Z,100060.25
2017-09-03T21:06:02.349Z,100055.94
2017-09-03T21:09:03.751Z,100068.14
2017-09-03T21:12:05.075Z,100070.48
2017-09-03T21:15:06.404Z,100066.00
2017-09-03T21:18:07.758Z,100062.86
2017-09-03T21:21:09.108Z,100062.59
2017-09-03T21:24:10.470Z,100062.92
2017-09-03T21:27:11.781Z,100056.50
2017-09-03T21:30:13.110Z,100062.86
2017-09-03T21:33:14.604Z,100064.39
2017-09-03T21:36:15.912Z,100062.66
2017-09-03T21:39:17.221Z,100060.91
2017-09-03T21:42:18.514Z,100067.00
2017-09-03T21:45:19.900Z,100063.33
2017-09-03T21:48:21.213Z,100070.61
2017-09-03T21:51:22.537Z,100064.02
2017-09-03T21:54:23.864Z,100064.06
2017-09-03T21:57:25.205Z,100067.00
2017-09-03T22:00:26.548Z,100069.13
2017-09-03T22:03:27.869Z,100068.69
2017-09-03T22:06:29.188Z,100061.63
2017-09-03T22:09:30.541Z,100062.31
2017-09-03T22:12:31.852Z,100060.16
2017-09-03T22:15:33.196Z,100067.41
2017-09-03T22:18:34.751Z,100065.02
2017-09-03T22:21:36.104Z,100064.94
2017-09-03T22:24:37.464Z,100068.06
2017-09-03T22:27:38.784Z,100062.28
2017-09-03T22:30:40.132Z,100058.40
2017-09-03T22:33:41.409Z,100059.22
2017-09-03T22:36:42.728Z,100047.14
2017-09-03T22:39:44.089Z,100052.44
2017-09-03T22:42:45.381Z,100054.45
2017-09-03T22:45:46.977Z,100045.73
2017-09-03T22:48:48.272Z,100043.23
2017-09-03T22:51:49.612Z,100046.74
2017-09-03T22:54:50.907Z,100040.16
2017-09-03T22:57:52.233Z,100037.38
2017-09-03T23:00:53.568Z,100043.13
2017-09-03T23:03:54.885Z,100040.77
2017-09-03T23:06:56.180Z,100035.04
2017-09-03T23:09:57.514Z,100033.78
2017-09-03T23:12:58.817Z,100035.45
2017-09-03T23:16:00.145Z,100029.81
2017-09-03T23:19:01.584Z,100031.23
2017-09-03T23:22:02.925Z,100024.22
2017-09-03T23:25:04.269Z,100033.04
2017-09-03T23:28:05.592Z,100039.97
2017-09-03T23:31:06.909Z,100034.16
2017-09-03T23:34:08.233Z,100035.22
2017-09-03T23:37:09.548Z,100036.64
2017-09-03T23:40:11.020Z,100031.34
2017-09-03T23:43:19.413Z,100034.89
2017-09-03T23:46:20.941Z,100031.00
2017-09-03T23:49:22.285Z,100032.05
2017-09-03T23:52:23.641Z,100033.39
2017-09-03T23:55:24.942Z,100027.02
2017-09-03T23:58:26.276Z,100018.62
